Terminal Aerodrome Forecast
Issued by NWS Omaha/Valley, NE

Home | Current Version | Previous Version | Text Only | Print | Product List | Glossary On
Versions: 1 2 3 4 5 6 7 8 9 10 11 12 13 14 15
000
FTUS43 KOAX 310520
TAFLNK
TAF
KLNK 310520Z 3106/0106 18011KT P6SM SCT080 BKN250
     FM310800 31007KT P6SM -SHRA SCT050 BKN080
      TEMPO 3109/3111 -TSRA SCT050CB BKN080
     FM311200 33008KT P6SM BKN100 PROB30 3118/3122 P6SM -TSRA
      SCT050CB BKN080
     FM312200 35008KT P6SM SCT250=

USA.gov is the U.S. government's official web portal to all federal, state and local government web resources and services.